sensor_id;sensor_type;location;lat;lon;timestamp;temperature;humidity
5689;DHT22;2869;50.432;8.680;2023-04-03T00:01:14;4.50;99.90
5689;DHT22;2869;50.432;8.680;2023-04-03T00:03:41;4.60;99.90
5689;DHT22;2869;50.432;8.680;2023-04-03T00:06:09;4.50;99.90
5689;DHT22;2869;50.432;8.680;2023-04-03T00:08:38;4.50;99.90
5689;DHT22;2869;50.432;8.680;2023-04-03T00:11:05;4.50;99.90
5689;DHT22;2869;50.432;8.680;2023-04-03T00:13:33;4.50;99.90
5689;DHT22;2869;50.432;8.680;2023-04-03T00:16:00;4.40;99.90
5689;DHT22;2869;50.432;8.680;2023-04-03T00:18:27;4.40;99.90
5689;DHT22;2869;50.432;8.680;2023-04-03T00:20:53;4.40;99.90
5689;DHT22;2869;50.432;8.680;2023-04-03T00:23:20;4.40;99.90
5689;DHT22;2869;50.432;8.680;2023-04-03T00:25:50;4.40;99.90
5689;DHT22;2869;50.432;8.680;2023-04-03T00:28:17;4.40;99.90
5689;DHT22;2869;50.432;8.680;2023-04-03T00:30:43;4.30;99.90
5689;DHT22;2869;50.432;8.680;2023-04-03T00:33:11;4.40;99.90
5689;DHT22;2869;50.432;8.680;2023-04-03T00:35:38;4.40;99.90
5689;DHT22;2869;50.432;8.680;2023-04-03T00:38:05;4.40;99.90
5689;DHT22;2869;50.432;8.680;2023-04-03T00:40:34;4.40;99.90
5689;DHT22;2869;50.432;8.680;2023-04-03T00:43:10;4.40;99.90
5689;DHT22;2869;50.432;8.680;2023-04-03T00:45:39;4.40;99.90
5689;DHT22;2869;50.432;8.680;2023-04-03T00:48:09;4.40;99.90
5689;DHT22;2869;50.432;8.680;2023-04-03T00:50:41;4.40;99.90
5689;DHT22;2869;50.432;8.680;2023-04-03T00:53:12;4.40;99.90
5689;DHT22;2869;50.432;8.680;2023-04-03T00:55:41;4.40;99.90
5689;DHT22;2869;50.432;8.680;2023-04-03T00:58:10;4.40;99.90
5689;DHT22;2869;50.432;8.680;2023-04-03T01:00:39;4.40;99.90
5689;DHT22;2869;50.432;8.680;2023-04-03T01:03:07;4.40;99.90
5689;DHT22;2869;50.432;8.680;2023-04-03T01:05:33;4.40;99.90
5689;DHT22;2869;50.432;8.680;2023-04-03T01:08:01;4.40;99.90
5689;DHT22;2869;50.432;8.680;2023-04-03T01:10:28;4.40;99.90
5689;DHT22;2869;50.432;8.680;2023-04-03T01:12:55;4.50;99.90
5689;DHT22;2869;50.432;8.680;2023-04-03T01:15:24;4.50;99.90
5689;DHT22;2869;50.432;8.680;2023-04-03T01:17:52;4.40;99.90
5689;DHT22;2869;50.432;8.680;2023-04-03T01:20:47;4.40;99.90
5689;DHT22;2869;50.432;8.680;2023-04-03T01:23:27;4.40;99.90
5689;DHT22;2869;50.432;8.680;2023-04-03T01:25:57;4.40;99.90
5689;DHT22;2869;50.432;8.680;2023-04-03T01:28:25;4.40;99.90
5689;DHT22;2869;50.432;8.680;2023-04-03T01:30:59;4.40;99.90
5689;DHT22;2869;50.432;8.680;2023-04-03T01:33:29;4.40;99.90
5689;DHT22;2869;50.432;8.680;2023-04-03T01:35:56;4.40;99.90
5689;DHT22;2869;50.432;8.680;2023-04-03T01:38:23;4.30;99.90
5689;DHT22;2869;50.432;8.680;2023-04-03T01:40:49;4.30;99.90
5689;DHT22;2869;50.432;8.680;2023-04-03T01:43:16;4.20;99.90
5689;DHT22;2869;50.432;8.680;2023-04-03T01:45:43;4.10;99.90
5689;DHT22;2869;50.432;8.680;2023-04-03T01:48:10;4.10;99.90
5689;DHT22;2869;50.432;8.680;2023-04-03T01:50:38;4.00;99.90
5689;DHT22;2869;50.432;8.680;2023-04-03T01:53:04;4.10;99.90
5689;DHT22;2869;50.432;8.680;2023-04-03T01:55:31;4.00;99.90
5689;DHT22;2869;50.432;8.680;2023-04-03T01:57:58;4.10;99.90
5689;DHT22;2869;50.432;8.680;2023-04-03T02:00:24;4.00;99.90
5689;DHT22;2869;50.432;8.680;2023-04-03T02:02:52;4.10;99.90
5689;DHT22;2869;50.432;8.680;2023-04-03T02:05:18;4.00;99.90
5689;DHT22;2869;50.432;8.680;2023-04-03T02:07:46;4.10;99.90
5689;DHT22;2869;50.432;8.680;2023-04-03T02:10:13;4.10;99.90
5689;DHT22;2869;50.432;8.680;2023-04-03T02:12:40;4.10;99.90
5689;DHT22;2869;50.432;8.680;2023-04-03T02:15:08;4.10;99.90
5689;DHT22;2869;50.432;8.680;2023-04-03T02:17:35;4.00;99.90
5689;DHT22;2869;50.432;8.680;2023-04-03T02:20:01;4.00;99.90
5689;DHT22;2869;50.432;8.680;2023-04-03T02:22:28;4.10;99.90
5689;DHT22;2869;50.432;8.680;2023-04-03T02:24:56;4.10;99.90
5689;DHT22;2869;50.432;8.680;2023-04-03T02:27:24;4.00;99.90
5689;DHT22;2869;50.432;8.680;2023-04-03T02:29:50;4.00;99.90
5689;DHT22;2869;50.432;8.680;2023-04-03T02:32:17;4.00;99.90
5689;DHT22;2869;50.432;8.680;2023-04-03T02:34:43;3.90;99.90
5689;DHT22;2869;50.432;8.680;2023-04-03T02:37:10;3.90;99.90
5689;DHT22;2869;50.432;8.680;2023-04-03T02:39:37;3.80;99.90
5689;DHT22;2869;50.432;8.680;2023-04-03T02:42:05;3.70;99.90
5689;DHT22;2869;50.432;8.680;2023-04-03T02:44:32;3.60;99.90
5689;DHT22;2869;50.432;8.680;2023-04-03T02:46:59;3.60;99.90
5689;DHT22;2869;50.432;8.680;2023-04-03T02:49:25;3.60;99.90
5689;DHT22;2869;50.432;8.680;2023-04-03T02:51:52;3.50;99.90
5689;DHT22;2869;50.432;8.680;2023-04-03T02:54:19;3.50;99.90
5689;DHT22;2869;50.432;8.680;2023-04-03T02:56:46;3.40;99.90
5689;DHT22;2869;50.432;8.680;2023-04-03T02:59:14;3.30;99.90
5689;DHT22;2869;50.432;8.680;2023-04-03T03:01:40;3.30;99.90
5689;DHT22;2869;50.432;8.680;2023-04-03T03:04:07;3.20;99.90
5689;DHT22;2869;50.432;8.680;2023-04-03T03:06:34;3.10;99.90
5689;DHT22;2869;50.432;8.680;2023-04-03T03:09:00;3.00;99.90
5689;DHT22;2869;50.432;8.680;2023-04-03T03:11:27;3.00;99.90
5689;DHT22;2869;50.432;8.680;2023-04-03T03:13:54;2.90;99.90
5689;DHT22;2869;50.432;8.680;2023-04-03T03:16:22;2.90;99.90
5689;DHT22;2869;50.432;8.680;2023-04-03T03:18:48;2.80;99.90
5689;DHT22;2869;50.432;8.680;2023-04-03T03:21:15;2.80;99.90
5689;DHT22;2869;50.432;8.680;2023-04-03T03:23:42;2.70;99.90
5689;DHT22;2869;50.432;8.680;2023-04-03T03:26:10;2.60;99.90
5689;DHT22;2869;50.432;8.680;2023-04-03T03:28:38;2.70;99.90
5689;DHT22;2869;50.432;8.680;2023-04-03T03:31:06;2.50;99.90
5689;DHT22;2869;50.432;8.680;2023-04-03T03:33:34;2.40;99.90
5689;DHT22;2869;50.432;8.680;2023-04-03T03:36:01;2.40;99.90
5689;DHT22;2869;50.432;8.680;2023-04-03T03:38:27;2.30;99.90
5689;DHT22;2869;50.432;8.680;2023-04-03T03:40:54;2.20;99.90
5689;DHT22;2869;50.432;8.680;2023-04-03T03:43:21;2.10;99.90
5689;DHT22;2869;50.432;8.680;2023-04-03T03:45:50;2.00;99.90
5689;DHT22;2869;50.432;8.680;2023-04-03T03:48:17;1.80;99.90
5689;DHT22;2869;50.432;8.680;2023-04-03T03:50:45;1.80;99.90
5689;DHT22;2869;50.432;8.680;2023-04-03T03:53:12;1.70;99.90
5689;DHT22;2869;50.432;8.680;2023-04-03T03:55:38;1.70;99.90
5689;DHT22;2869;50.432;8.680;2023-04-03T03:58:05;1.60;99.90
5689;DHT22;2869;50.432;8.680;2023-04-03T04:00:32;1.60;99.90
5689;DHT22;2869;50.432;8.680;2023-04-03T04:02:59;1.50;99.90
5689;DHT22;2869;50.432;8.680;2023-04-03T04:05:26;1.50;99.90
5689;DHT22;2869;50.432;8.680;2023-04-03T04:07:54;1.50;99.90
5689;DHT22;2869;50.432;8.680;2023-04-03T04:10:20;1.40;99.90
5689;DHT22;2869;50.432;8.680;2023-04-03T04:12:47;1.40;99.90
5689;DHT22;2869;50.432;8.680;2023-04-03T04:15:16;1.30;99.90
5689;DHT22;2869;50.432;8.680;2023-04-03T04:17:43;1.30;99.90
5689;DHT22;2869;50.432;8.680;2023-04-03T04:20:10;1.20;99.90
5689;DHT22;2869;50.432;8.680;2023-04-03T04:22:37;1.20;99.90
5689;DHT22;2869;50.432;8.680;2023-04-03T04:25:06;1.10;99.90
5689;DHT22;2869;50.432;8.680;2023-04-03T04:27:32;1.10;99.90
5689;DHT22;2869;50.432;8.680;2023-04-03T04:29:59;1.10;99.90
5689;DHT22;2869;50.432;8.680;2023-04-03T04:32:26;1.00;99.90
5689;DHT22;2869;50.432;8.680;2023-04-03T04:34:53;1.00;99.90
5689;DHT22;2869;50.432;8.680;2023-04-03T04:37:19;1.00;99.90
5689;DHT22;2869;50.432;8.680;2023-04-03T04:39:46;0.90;99.90
5689;DHT22;2869;50.432;8.680;2023-04-03T04:42:14;0.90;99.90
5689;DHT22;2869;50.432;8.680;2023-04-03T04:44:40;0.90;99.90
5689;DHT22;2869;50.432;8.680;2023-04-03T04:47:07;0.80;99.90
5689;DHT22;2869;50.432;8.680;2023-04-03T04:49:34;0.90;99.90
5689;DHT22;2869;50.432;8.680;2023-04-03T04:52:00;0.80;99.90
5689;DHT22;2869;50.432;8.680;2023-04-03T04:54:27;0.80;99.90
5689;DHT22;2869;50.432;8.680;2023-04-03T04:56:53;0.80;99.90
5689;DHT22;2869;50.432;8.680;2023-04-03T04:59:22;0.80;99.90
5689;DHT22;2869;50.432;8.680;2023-04-03T05:01:48;0.80;99.90
5689;DHT22;2869;50.432;8.680;2023-04-03T05:04:15;0.70;99.90
5689;DHT22;2869;50.432;8.680;2023-04-03T05:06:41;0.70;99.90
5689;DHT22;2869;50.432;8.680;2023-04-03T05:09:08;0.70;99.90
5689;DHT22;2869;50.432;8.680;2023-04-03T05:11:35;0.70;99.90
5689;DHT22;2869;50.432;8.680;2023-04-03T05:14:02;0.70;99.90
5689;DHT22;2869;50.432;8.680;2023-04-03T05:16:32;0.70;99.90
5689;DHT22;2869;50.432;8.680;2023-04-03T05:18:58;0.70;99.90
5689;DHT22;2869;50.432;8.680;2023-04-03T05:21:25;0.70;99.90
5689;DHT22;2869;50.432;8.680;2023-04-03T05:23:53;0.70;99.90
5689;DHT22;2869;50.432;8.680;2023-04-03T05:26:19;0.70;99.90
5689;DHT22;2869;50.432;8.680;2023-04-03T05:28:46;0.80;99.90
5689;DHT22;2869;50.432;8.680;2023-04-03T05:31:13;0.70;99.90
5689;DHT22;2869;50.432;8.680;2023-04-03T05:33:42;0.70;99.90
5689;DHT22;2869;50.432;8.680;2023-04-03T05:36:09;0.80;99.90
5689;DHT22;2869;50.432;8.680;2023-04-03T05:38:35;0.80;99.90
5689;DHT22;2869;50.432;8.680;2023-04-03T05:41:02;1.00;99.90
5689;DHT22;2869;50.432;8.680;2023-04-03T05:43:29;1.30;99.90
5689;DHT22;2869;50.432;8.680;2023-04-03T05:45:55;1.50;99.90
5689;DHT22;2869;50.432;8.680;2023-04-03T05:48:22;1.70;99.90
5689;DHT22;2869;50.432;8.680;2023-04-03T05:50:50;1.90;99.90
5689;DHT22;2869;50.432;8.680;2023-04-03T05:53:20;2.10;99.90
5689;DHT22;2869;50.432;8.680;2023-04-03T05:55:47;2.30;99.90
5689;DHT22;2869;50.432;8.680;2023-04-03T05:58:14;2.50;99.90
5689;DHT22;2869;50.432;8.680;2023-04-03T06:00:41;2.80;99.90
5689;DHT22;2869;50.432;8.680;2023-04-03T06:03:07;2.80;99.90
5689;DHT22;2869;50.432;8.680;2023-04-03T06:05:34;3.00;99.90
5689;DHT22;2869;50.432;8.680;2023-04-03T06:08:03;3.00;99.90
5689;DHT22;2869;50.432;8.680;2023-04-03T06:10:29;3.30;99.90
5689;DHT22;2869;50.432;8.680;2023-04-03T06:12:56;3.40;99.90
5689;DHT22;2869;50.432;8.680;2023-04-03T06:15:23;3.70;99.90
5689;DHT22;2869;50.432;8.680;2023-04-03T06:17:50;4.00;99.90
5689;DHT22;2869;50.432;8.680;2023-04-03T06:20:16;4.30;99.90
5689;DHT22;2869;50.432;8.680;2023-04-03T06:22:43;4.50;99.90
5689;DHT22;2869;50.432;8.680;2023-04-03T06:25:11;4.30;99.90
5689;DHT22;2869;50.432;8.680;2023-04-03T06:27:38;4.40;99.90
5689;DHT22;2869;50.432;8.680;2023-04-03T06:30:06;4.50;99.90
5689;DHT22;2869;50.432;8.680;2023-04-03T06:32:33;4.50;99.90
5689;DHT22;2869;50.432;8.680;2023-04-03T06:35:00;4.60;99.90
5689;DHT22;2869;50.432;8.680;2023-04-03T06:37:27;4.80;99.90
5689;DHT22;2869;50.432;8.680;2023-04-03T06:39:54;4.80;99.90
5689;DHT22;2869;50.432;8.680;2023-04-03T06:42:22;5.20;99.90
5689;DHT22;2869;50.432;8.680;2023-04-03T06:44:49;5.10;99.90
5689;DHT22;2869;50.432;8.680;2023-04-03T06:47:16;4.70;99.90
5689;DHT22;2869;50.432;8.680;2023-04-03T06:49:43;4.60;99.90
5689;DHT22;2869;50.432;8.680;2023-04-03T06:52:10;4.80;99.90
5689;DHT22;2869;50.432;8.680;2023-04-03T06:54:38;5.00;99.90
5689;DHT22;2869;50.432;8.680;2023-04-03T06:57:05;5.20;99.90
5689;DHT22;2869;50.432;8.680;2023-04-03T06:59:33;5.40;99.90
5689;DHT22;2869;50.432;8.680;2023-04-03T07:02:00;5.60;99.90
5689;DHT22;2869;50.432;8.680;2023-04-03T07:04:26;5.60;99.90
5689;DHT22;2869;50.432;8.680;2023-04-03T07:06:53;5.50;99.90
5689;DHT22;2869;50.432;8.680;2023-04-03T07:09:20;5.40;99.90
5689;DHT22;2869;50.432;8.680;2023-04-03T07:11:46;5.50;99.90
5689;DHT22;2869;50.432;8.680;2023-04-03T07:14:13;5.80;99.90
5689;DHT22;2869;50.432;8.680;2023-04-03T07:16:41;5.90;99.90
5689;DHT22;2869;50.432;8.680;2023-04-03T07:19:08;5.90;99.90
5689;DHT22;2869;50.432;8.680;2023-04-03T07:21:35;5.90;99.90
5689;DHT22;2869;50.432;8.680;2023-04-03T07:24:01;5.70;99.90
5689;DHT22;2869;50.432;8.680;2023-04-03T07:26:28;6.10;99.90
5689;DHT22;2869;50.432;8.680;2023-04-03T07:28:55;7.20;99.90
5689;DHT22;2869;50.432;8.680;2023-04-03T07:31:22;8.00;99.90
5689;DHT22;2869;50.432;8.680;2023-04-03T07:33:52;8.00;99.90
5689;DHT22;2869;50.432;8.680;2023-04-03T07:36:20;7.70;99.90
5689;DHT22;2869;50.432;8.680;2023-04-03T07:38:46;6.60;99.90
5689;DHT22;2869;50.432;8.680;2023-04-03T07:41:15;6.20;99.90
5689;DHT22;2869;50.432;8.680;2023-04-03T07:43:43;5.80;99.90
5689;DHT22;2869;50.432;8.680;2023-04-03T07:46:10;5.70;99.90
5689;DHT22;2869;50.432;8.680;2023-04-03T07:48:37;5.90;99.90
5689;DHT22;2869;50.432;8.680;2023-04-03T07:51:05;6.00;99.90
5689;DHT22;2869;50.432;8.680;2023-04-03T07:53:32;6.10;99.90
5689;DHT22;2869;50.432;8.680;2023-04-03T07:55:59;6.10;99.90
5689;DHT22;2869;50.432;8.680;2023-04-03T07:58:28;6.10;99.90
5689;DHT22;2869;50.432;8.680;2023-04-03T08:00:55;6.00;99.90
5689;DHT22;2869;50.432;8.680;2023-04-03T08:03:21;6.10;99.90
5689;DHT22;2869;50.432;8.680;2023-04-03T08:05:49;6.30;99.90
5689;DHT22;2869;50.432;8.680;2023-04-03T08:08:19;6.50;99.90
5689;DHT22;2869;50.432;8.680;2023-04-03T08:10:48;6.50;99.90
5689;DHT22;2869;50.432;8.680;2023-04-03T08:13:16;6.60;99.90
5689;DHT22;2869;50.432;8.680;2023-04-03T08:15:42;6.80;99.90
5689;DHT22;2869;50.432;8.680;2023-04-03T08:18:10;6.70;99.90
5689;DHT22;2869;50.432;8.680;2023-04-03T08:20:37;6.90;99.90
5689;DHT22;2869;50.432;8.680;2023-04-03T08:23:05;6.80;99.90
5689;DHT22;2869;50.432;8.680;2023-04-03T08:25:33;6.80;99.90
5689;DHT22;2869;50.432;8.680;2023-04-03T08:27:59;6.80;99.90
5689;DHT22;2869;50.432;8.680;2023-04-03T08:30:27;6.80;99.90
5689;DHT22;2869;50.432;8.680;2023-04-03T08:32:54;6.90;99.90
5689;DHT22;2869;50.432;8.680;2023-04-03T08:35:20;7.20;99.90
5689;DHT22;2869;50.432;8.680;2023-04-03T08:37:47;7.30;99.90
5689;DHT22;2869;50.432;8.680;2023-04-03T08:40:16;7.20;99.90
5689;DHT22;2869;50.432;8.680;2023-04-03T08:42:51;7.10;99.90
5689;DHT22;2869;50.432;8.680;2023-04-03T08:45:25;7.10;99.90
5689;DHT22;2869;50.432;8.680;2023-04-03T08:47:56;7.10;99.90
5689;DHT22;2869;50.432;8.680;2023-04-03T08:50:30;7.20;99.90
5689;DHT22;2869;50.432;8.680;2023-04-03T08:52:59;7.30;99.90
5689;DHT22;2869;50.432;8.680;2023-04-03T08:55:29;7.30;99.90
5689;DHT22;2869;50.432;8.680;2023-04-03T08:58:01;7.40;99.90
5689;DHT22;2869;50.432;8.680;2023-04-03T09:00:30;7.50;99.90
5689;DHT22;2869;50.432;8.680;2023-04-03T09:02:59;7.50;99.90
5689;DHT22;2869;50.432;8.680;2023-04-03T09:05:35;7.50;99.90
5689;DHT22;2869;50.432;8.680;2023-04-03T09:08:12;7.50;99.90
5689;DHT22;2869;50.432;8.680;2023-04-03T09:10:41;7.50;99.90
5689;DHT22;2869;50.432;8.680;2023-04-03T09:13:13;7.80;99.90
5689;DHT22;2869;50.432;8.680;2023-04-03T09:15:44;8.00;99.90
5689;DHT22;2869;50.432;8.680;2023-04-03T09:18:15;8.00;99.90
5689;DHT22;2869;50.432;8.680;2023-04-03T09:20:46;7.80;99.90
5689;DHT22;2869;50.432;8.680;2023-04-03T09:23:22;7.90;99.90
5689;DHT22;2869;50.432;8.680;2023-04-03T09:25:51;8.00;99.90
5689;DHT22;2869;50.432;8.680;2023-04-03T09:28:21;7.90;99.90
5689;DHT22;2869;50.432;8.680;2023-04-03T09:30:47;7.90;99.90
5689;DHT22;2869;50.432;8.680;2023-04-03T09:33:14;8.00;99.90
5689;DHT22;2869;50.432;8.680;2023-04-03T09:35:42;8.40;99.90
5689;DHT22;2869;50.432;8.680;2023-04-03T09:38:18;8.50;99.90
5689;DHT22;2869;50.432;8.680;2023-04-03T09:40:46;8.60;99.90
5689;DHT22;2869;50.432;8.680;2023-04-03T09:43:26;8.70;99.90
5689;DHT22;2869;50.432;8.680;2023-04-03T09:45:54;8.80;99.90
5689;DHT22;2869;50.432;8.680;2023-04-03T09:48:23;8.90;99.90
5689;DHT22;2869;50.432;8.680;2023-04-03T09:50:56;9.10;99.90
5689;DHT22;2869;50.432;8.680;2023-04-03T09:53:30;8.80;99.90
5689;DHT22;2869;50.432;8.680;2023-04-03T09:55:58;8.80;99.90
5689;DHT22;2869;50.432;8.680;2023-04-03T09:58:28;8.70;99.90
5689;DHT22;2869;50.432;8.680;2023-04-03T10:00:57;8.80;99.90
5689;DHT22;2869;50.432;8.680;2023-04-03T10:03:28;8.90;99.90
5689;DHT22;2869;50.432;8.680;2023-04-03T10:05:55;9.10;99.90
5689;DHT22;2869;50.432;8.680;2023-04-03T10:08:26;9.00;99.90
5689;DHT22;2869;50.432;8.680;2023-04-03T10:11:09;9.10;99.90
5689;DHT22;2869;50.432;8.680;2023-04-03T10:13:50;9.30;99.90
5689;DHT22;2869;50.432;8.680;2023-04-03T10:16:20;9.30;99.90
5689;DHT22;2869;50.432;8.680;2023-04-03T10:18:52;9.10;99.90
5689;DHT22;2869;50.432;8.680;2023-04-03T10:21:32;9.10;99.90
5689;DHT22;2869;50.432;8.680;2023-04-03T10:24:08;9.00;99.90
5689;DHT22;2869;50.432;8.680;2023-04-03T10:26:41;9.10;99.90
5689;DHT22;2869;50.432;8.680;2023-04-03T10:29:22;9.40;99.90
5689;DHT22;2869;50.432;8.680;2023-04-03T10:31:58;9.60;99.90
5689;DHT22;2869;50.432;8.680;2023-04-03T10:34:29;9.70;99.90
5689;DHT22;2869;50.432;8.680;2023-04-03T10:37:01;10.10;99.90
5689;DHT22;2869;50.432;8.680;2023-04-03T10:39:35;10.30;99.90
5689;DHT22;2869;50.432;8.680;2023-04-03T10:42:09;10.10;99.90
5689;DHT22;2869;50.432;8.680;2023-04-03T10:44:52;10.10;99.90
5689;DHT22;2869;50.432;8.680;2023-04-03T10:47:28;9.90;99.90
5689;DHT22;2869;50.432;8.680;2023-04-03T10:50:03;10.10;99.90
5689;DHT22;2869;50.432;8.680;2023-04-03T10:52:39;9.80;99.90
5689;DHT22;2869;50.432;8.680;2023-04-03T10:55:22;9.70;99.90
5689;DHT22;2869;50.432;8.680;2023-04-03T10:57:51;9.50;99.90
5689;DHT22;2869;50.432;8.680;2023-04-03T11:00:25;9.50;99.90
5689;DHT22;2869;50.432;8.680;2023-04-03T11:02:55;9.40;99.90
5689;DHT22;2869;50.432;8.680;2023-04-03T11:05:31;9.60;99.90
5689;DHT22;2869;50.432;8.680;2023-04-03T11:08:04;9.70;99.90
5689;DHT22;2869;50.432;8.680;2023-04-03T11:10:39;9.90;99.90
5689;DHT22;2869;50.432;8.680;2023-04-03T11:13:11;10.10;99.90
5689;DHT22;2869;50.432;8.680;2023-04-03T11:15:41;10.40;99.90
5689;DHT22;2869;50.432;8.680;2023-04-03T11:18:12;10.10;99.90
5689;DHT22;2869;50.432;8.680;2023-04-03T11:20:42;9.80;99.90
5689;DHT22;2869;50.432;8.680;2023-04-03T11:23:18;9.80;99.90
5689;DHT22;2869;50.432;8.680;2023-04-03T11:25:51;10.10;99.90
5689;DHT22;2869;50.432;8.680;2023-04-03T11:28:19;10.40;99.90
5689;DHT22;2869;50.432;8.680;2023-04-03T11:30:49;10.60;99.90
5689;DHT22;2869;50.432;8.680;2023-04-03T11:33:27;10.80;99.90
5689;DHT22;2869;50.432;8.680;2023-04-03T11:35:59;11.00;99.90
5689;DHT22;2869;50.432;8.680;2023-04-03T11:38:29;10.90;99.90
5689;DHT22;2869;50.432;8.680;2023-04-03T11:41:00;11.20;99.90
5689;DHT22;2869;50.432;8.680;2023-04-03T11:43:29;11.40;99.90
5689;DHT22;2869;50.432;8.680;2023-04-03T11:45:59;11.40;99.90
5689;DHT22;2869;50.432;8.680;2023-04-03T11:48:49;11.50;99.90
5689;DHT22;2869;50.432;8.680;2023-04-03T11:51:42;11.50;99.90
5689;DHT22;2869;50.432;8.680;2023-04-03T11:54:47;11.40;99.90
5689;DHT22;2869;50.432;8.680;2023-04-03T11:57:46;11.40;99.90
5689;DHT22;2869;50.432;8.680;2023-04-03T12:00:51;11.50;99.90
5689;DHT22;2869;50.432;8.680;2023-04-03T12:04:07;11.20;99.90
5689;DHT22;2869;50.432;8.680;2023-04-03T12:09:57;11.00;99.90
5689;DHT22;2869;50.432;8.680;2023-04-03T12:12:32;11.10;99.90
5689;DHT22;2869;50.432;8.680;2023-04-03T12:21:18;11.20;99.90
5689;DHT22;2869;50.432;8.680;2023-04-03T12:24:23;11.30;99.90
5689;DHT22;2869;50.432;8.680;2023-04-03T12:27:00;11.40;99.90
5689;DHT22;2869;50.432;8.680;2023-04-03T12:29:33;10.70;99.60
5689;DHT22;2869;50.432;8.680;2023-04-03T12:32:09;10.60;99.90
5689;DHT22;2869;50.432;8.680;2023-04-03T12:34:56;10.60;99.90
5689;DHT22;2869;50.432;8.680;2023-04-03T12:37:43;10.60;99.90
5689;DHT22;2869;50.432;8.680;2023-04-03T12:40:21;10.50;99.90
5689;DHT22;2869;50.432;8.680;2023-04-03T12:43:05;10.60;99.90
5689;DHT22;2869;50.432;8.680;2023-04-03T12:45:41;10.70;99.90
5689;DHT22;2869;50.432;8.680;2023-04-03T12:48:14;11.00;99.90
5689;DHT22;2869;50.432;8.680;2023-04-03T12:50:41;11.40;99.90
5689;DHT22;2869;50.432;8.680;2023-04-03T12:53:15;11.30;98.30
5689;DHT22;2869;50.432;8.680;2023-04-03T12:55:43;11.50;98.70
5689;DHT22;2869;50.432;8.680;2023-04-03T12:58:14;11.40;96.90
5689;DHT22;2869;50.432;8.680;2023-04-03T13:00:42;11.20;98.20
5689;DHT22;2869;50.432;8.680;2023-04-03T13:03:21;11.10;98.40
5689;DHT22;2869;50.432;8.680;2023-04-03T13:05:49;11.20;98.10
5689;DHT22;2869;50.432;8.680;2023-04-03T13:08:17;11.10;98.80
5689;DHT22;2869;50.432;8.680;2023-04-03T13:10:53;11.10;98.70
5689;DHT22;2869;50.432;8.680;2023-04-03T13:13:20;11.20;99.90
5689;DHT22;2869;50.432;8.680;2023-04-03T13:15:48;11.30;99.90
5689;DHT22;2869;50.432;8.680;2023-04-03T13:18:29;11.20;99.00
5689;DHT22;2869;50.432;8.680;2023-04-03T13:21:00;11.50;98.90
5689;DHT22;2869;50.432;8.680;2023-04-03T13:23:29;11.10;97.80
5689;DHT22;2869;50.432;8.680;2023-04-03T13:25:57;10.80;98.50
5689;DHT22;2869;50.432;8.680;2023-04-03T13:28:28;10.90;99.90
5689;DHT22;2869;50.432;8.680;2023-04-03T13:30:59;11.20;99.50
5689;DHT22;2869;50.432;8.680;2023-04-03T13:33:30;11.70;98.90
5689;DHT22;2869;50.432;8.680;2023-04-03T13:36:18;11.50;97.00
5689;DHT22;2869;50.432;8.680;2023-04-03T13:38:58;11.10;98.70
5689;DHT22;2869;50.432;8.680;2023-04-03T13:41:29;11.10;99.90
5689;DHT22;2869;50.432;8.680;2023-04-03T13:43:56;11.10;99.40
5689;DHT22;2869;50.432;8.680;2023-04-03T13:46:25;11.30;99.90
5689;DHT22;2869;50.432;8.680;2023-04-03T13:48:55;11.10;99.90
5689;DHT22;2869;50.432;8.680;2023-04-03T13:51:24;11.10;99.90
5689;DHT22;2869;50.432;8.680;2023-04-03T13:53:54;11.30;99.90
5689;DHT22;2869;50.432;8.680;2023-04-03T13:56:29;11.50;99.90
5689;DHT22;2869;50.432;8.680;2023-04-03T13:59:06;11.40;99.00
5689;DHT22;2869;50.432;8.680;2023-04-03T14:01:48;11.50;99.90
5689;DHT22;2869;50.432;8.680;2023-04-03T14:04:19;11.70;99.50
5689;DHT22;2869;50.432;8.680;2023-04-03T14:06:47;11.60;99.90
5689;DHT22;2869;50.432;8.680;2023-04-03T14:09:17;11.70;99.20
5689;DHT22;2869;50.432;8.680;2023-04-03T14:11:44;11.60;97.10
5689;DHT22;2869;50.432;8.680;2023-04-03T14:14:14;11.20;97.60
5689;DHT22;2869;50.432;8.680;2023-04-03T14:16:44;10.90;97.70
5689;DHT22;2869;50.432;8.680;2023-04-03T14:19:23;10.60;99.40
5689;DHT22;2869;50.432;8.680;2023-04-03T14:21:51;10.50;99.40
5689;DHT22;2869;50.432;8.680;2023-04-03T14:24:20;10.70;99.30
5689;DHT22;2869;50.432;8.680;2023-04-03T14:26:48;10.80;99.80
5689;DHT22;2869;50.432;8.680;2023-04-03T14:29:15;11.20;99.90
5689;DHT22;2869;50.432;8.680;2023-04-03T14:31:43;11.10;99.40
5689;DHT22;2869;50.432;8.680;2023-04-03T14:34:10;11.10;99.50
5689;DHT22;2869;50.432;8.680;2023-04-03T14:36:38;11.10;99.60
5689;DHT22;2869;50.432;8.680;2023-04-03T14:39:06;11.00;97.60
5689;DHT22;2869;50.432;8.680;2023-04-03T14:41:35;10.50;96.50
5689;DHT22;2869;50.432;8.680;2023-04-03T14:44:02;10.20;97.10
5689;DHT22;2869;50.432;8.680;2023-04-03T14:46:31;10.20;97.30
5689;DHT22;2869;50.432;8.680;2023-04-03T14:48:59;10.10;97.40
5689;DHT22;2869;50.432;8.680;2023-04-03T14:51:26;10.00;96.80
5689;DHT22;2869;50.432;8.680;2023-04-03T14:53:53;10.00;97.30
5689;DHT22;2869;50.432;8.680;2023-04-03T14:56:23;10.10;97.60
5689;DHT22;2869;50.432;8.680;2023-04-03T14:58:55;10.20;99.30
5689;DHT22;2869;50.432;8.680;2023-04-03T15:01:22;10.40;98.10
5689;DHT22;2869;50.432;8.680;2023-04-03T15:03:49;10.50;98.90
5689;DHT22;2869;50.432;8.680;2023-04-03T15:06:16;10.50;98.20
5689;DHT22;2869;50.432;8.680;2023-04-03T15:08:43;10.20;98.50
5689;DHT22;2869;50.432;8.680;2023-04-03T15:11:13;10.20;99.90
5689;DHT22;2869;50.432;8.680;2023-04-03T15:13:40;10.20;99.90
5689;DHT22;2869;50.432;8.680;2023-04-03T15:16:14;10.20;99.90
5689;DHT22;2869;50.432;8.680;2023-04-03T15:18:41;10.40;99.90
5689;DHT22;2869;50.432;8.680;2023-04-03T15:21:08;10.10;99.80
5689;DHT22;2869;50.432;8.680;2023-04-03T15:23:35;9.80;99.90
5689;DHT22;2869;50.432;8.680;2023-04-03T15:26:02;9.60;99.60
5689;DHT22;2869;50.432;8.680;2023-04-03T15:28:31;9.50;99.90
5689;DHT22;2869;50.432;8.680;2023-04-03T15:30:59;9.30;99.90
5689;DHT22;2869;50.432;8.680;2023-04-03T15:33:27;9.30;99.80
5689;DHT22;2869;50.432;8.680;2023-04-03T15:35:54;9.20;99.30
5689;DHT22;2869;50.432;8.680;2023-04-03T15:38:20;9.20;99.90
5689;DHT22;2869;50.432;8.680;2023-04-03T15:40:47;9.20;99.90
5689;DHT22;2869;50.432;8.680;2023-04-03T15:43:15;9.20;99.90
5689;DHT22;2869;50.432;8.680;2023-04-03T15:45:42;9.20;99.90
5689;DHT22;2869;50.432;8.680;2023-04-03T15:48:09;9.30;99.90
5689;DHT22;2869;50.432;8.680;2023-04-03T15:50:38;9.10;99.80
5689;DHT22;2869;50.432;8.680;2023-04-03T15:53:05;8.80;99.40
5689;DHT22;2869;50.432;8.680;2023-04-03T15:55:35;8.70;98.70
5689;DHT22;2869;50.432;8.680;2023-04-03T15:58:03;8.70;99.90
5689;DHT22;2869;50.432;8.680;2023-04-03T16:00:30;8.80;99.90
5689;DHT22;2869;50.432;8.680;2023-04-03T16:03:00;8.70;99.90
5689;DHT22;2869;50.432;8.680;2023-04-03T16:05:29;8.50;99.90
5689;DHT22;2869;50.432;8.680;2023-04-03T16:07:59;8.40;99.90
5689;DHT22;2869;50.432;8.680;2023-04-03T16:10:26;8.40;99.90
5689;DHT22;2869;50.432;8.680;2023-04-03T16:12:53;8.30;99.90
5689;DHT22;2869;50.432;8.680;2023-04-03T16:15:20;8.20;99.90
5689;DHT22;2869;50.432;8.680;2023-04-03T16:17:47;8.10;99.90
5689;DHT22;2869;50.432;8.680;2023-04-03T16:20:15;7.90;99.40
5689;DHT22;2869;50.432;8.680;2023-04-03T16:22:42;7.90;99.90
5689;DHT22;2869;50.432;8.680;2023-04-03T16:25:10;7.80;99.90
5689;DHT22;2869;50.432;8.680;2023-04-03T16:27:38;7.80;99.90
5689;DHT22;2869;50.432;8.680;2023-04-03T16:30:06;7.70;99.90
5689;DHT22;2869;50.432;8.680;2023-04-03T16:32:33;7.60;99.90
5689;DHT22;2869;50.432;8.680;2023-04-03T16:35:00;7.60;99.90
5689;DHT22;2869;50.432;8.680;2023-04-03T16:37:27;7.60;99.90
5689;DHT22;2869;50.432;8.680;2023-04-03T16:39:54;7.60;99.90